Time;durP1;ratioP1;P1;durP2;ratioP2;P2;SDS_P1;SDS_P2;PMS_P1;PMS_P2;Temp;Humidity;BMP_temperature;BMP_pressure;BME280_temperature;BME280_humidity;BME280_pressure;Samples;Min_cycle;Max_cycle;Signal;HPM_P1;HPM_P2
2023/01/11 00:00:25;;;;;;;5.40;1.47;;;6.20;99.90;;;;;;5060046;28;20192;-71
2023/01/11 00:02:58;;;;;;;1.67;1.20;;;6.20;99.90;;;;;;5058386;28;20200;-70
2023/01/11 00:05:24;;;;;;;2.40;1.60;;;6.20;99.90;;;;;;5053950;28;20202;-70
2023/01/11 00:07:50;;;;;;;4.70;1.50;;;6.20;99.90;;;;;;5056297;28;20458;-71
2023/01/11 00:10:15;;;;;;;2.07;1.30;;;6.20;99.90;;;;;;5054663;28;20182;-70
2023/01/11 00:12:41;;;;;;;2.47;1.33;;;6.30;99.90;;;;;;5063574;28;20209;-70
2023/01/11 00:15:07;;;;;;;1.27;1.10;;;6.30;99.90;;;;;;5059032;28;20272;-73
2023/01/11 00:17:32;;;;;;;1.70;1.03;;;6.30;99.90;;;;;;5057190;28;20235;-70
2023/01/11 00:19:58;;;;;;;2.93;1.10;;;6.40;99.90;;;;;;5056629;28;20439;-70
2023/01/11 00:22:23;;;;;;;2.20;1.00;;;6.40;99.90;;;;;;5063168;28;20589;-69
2023/01/11 00:24:49;;;;;;;1.30;1.10;;;6.40;99.90;;;;;;5060582;28;20200;-70
2023/01/11 00:27:14;;;;;;;2.40;1.40;;;6.40;99.90;;;;;;5058724;28;20519;-69
2023/01/11 00:29:40;;;;;;;1.17;1.03;;;6.40;99.90;;;;;;5055641;28;20189;-70
2023/01/11 00:32:06;;;;;;;1.67;1.10;;;6.40;99.90;;;;;;5057348;28;20219;-71
2023/01/11 00:34:31;;;;;;;1.87;1.40;;;6.50;99.90;;;;;;5065271;28;20184;-69
2023/01/11 00:36:57;;;;;;;1.60;1.07;;;6.50;99.90;;;;;;5060267;28;20196;-70
2023/01/11 00:39:22;;;;;;;2.70;0.90;;;6.50;99.90;;;;;;5060081;28;20178;-71
2023/01/11 00:50:01;;;;;;;2.43;1.33;;;6.50;99.90;;;;;;5040560;28;20430;-69
2023/01/11 00:52:27;;;;;;;1.33;1.03;;;6.60;99.90;;;;;;5065637;28;21013;-70
2023/01/11 00:54:53;;;;;;;2.53;0.83;;;6.60;99.90;;;;;;5059333;28;20431;-74
2023/01/11 00:57:18;;;;;;;2.07;1.00;;;6.60;99.90;;;;;;5058563;28;20529;-69
2023/01/11 00:59:44;;;;;;;1.70;1.10;;;6.60;99.90;;;;;;5064612;28;20673;-71
2023/01/11 01:02:11;;;;;;;2.43;1.30;;;6.60;99.90;;;;;;5065741;28;20205;-69
2023/01/11 01:04:37;;;;;;;1.30;0.93;;;6.60;99.90;;;;;;5057528;28;20263;-71
2023/01/11 01:07:03;;;;;;;3.23;0.77;;;6.60;99.90;;;;;;5059671;28;20527;-71
2023/01/11 01:09:29;;;;;;;0.90;0.73;;;6.60;99.90;;;;;;5053443;28;20431;-70
2023/01/11 01:11:55;;;;;;;2.10;1.30;;;6.60;99.90;;;;;;5057318;28;20981;-71
2023/01/11 01:14:30;;;;;;;3.10;0.80;;;6.60;99.90;;;;;;5066448;28;20439;-70
2023/01/11 01:17:01;;;;;;;2.17;1.57;;;6.60;99.90;;;;;;5061655;28;20173;-71
2023/01/11 01:19:29;;;;;;;2.50;0.90;;;6.60;99.90;;;;;;5061545;28;20577;-69
2023/01/11 01:21:56;;;;;;;1.40;1.10;;;6.60;99.90;;;;;;5057008;28;20902;-69
2023/01/11 01:24:23;;;;;;;3.93;1.63;;;6.60;99.90;;;;;;5064032;28;20430;-69
2023/01/11 01:26:49;;;;;;;3.40;1.20;;;6.60;99.90;;;;;;5062224;28;21039;-70
2023/01/11 01:29:14;;;;;;;2.40;1.10;;;6.60;99.90;;;;;;5062360;28;20443;-71
2023/01/11 01:31:41;;;;;;;1.03;0.77;;;6.60;99.90;;;;;;5053918;28;20178;-70
2023/01/11 01:34:08;;;;;;;2.97;1.00;;;6.60;99.90;;;;;;5062549;28;20216;-73
2023/01/11 01:36:34;;;;;;;3.43;1.90;;;6.60;99.90;;;;;;5045480;28;20802;-71
2023/01/11 01:39:00;;;;;;;1.57;1.10;;;6.60;99.90;;;;;;5056084;28;20454;-70
2023/01/11 01:41:27;;;;;;;2.30;1.00;;;6.60;99.90;;;;;;5057205;28;20443;-69
2023/01/11 01:43:55;;;;;;;2.83;0.80;;;6.50;99.90;;;;;;5065180;28;20471;-70
2023/01/11 01:46:25;;;;;;;1.00;0.80;;;6.50;99.90;;;;;;5066105;28;20450;-70
2023/01/11 01:48:56;;;;;;;1.07;0.90;;;6.50;99.90;;;;;;5061941;28;20443;-70
2023/01/11 01:51:31;;;;;;;0.90;0.70;;;6.60;99.90;;;;;;5056947;28;20426;-69
2023/01/11 01:53:59;;;;;;;1.30;1.20;;;6.50;99.90;;;;;;5062887;28;20446;-71
2023/01/11 01:56:32;;;;;;;1.70;0.80;;;6.60;99.90;;;;;;5065799;28;20431;-72
2023/01/11 01:59:06;;;;;;;0.90;0.80;;;6.50;99.90;;;;;;5057400;28;20521;-70
2023/01/11 02:01:47;;;;;;;1.47;0.93;;;6.60;99.90;;;;;;5060098;28;20423;-70
2023/01/11 02:04:38;;;;;;;2.70;0.80;;;6.50;99.90;;;;;;5058972;28;20466;-69
2023/01/11 02:07:15;;;;;;;0.70;0.70;;;6.50;99.90;;;;;;5058032;28;20428;-71
2023/01/11 02:10:00;;;;;;;2.67;1.33;;;6.50;99.90;;;;;;5055653;28;20427;-70
2023/01/11 02:12:30;;;;;;;2.70;1.20;;;6.60;99.90;;;;;;5054540;28;20463;-70
2023/01/11 02:14:59;;;;;;;1.53;0.60;;;6.60;99.90;;;;;;5062260;28;20824;-69
2023/01/11 02:17:24;;;;;;;3.70;0.70;;;6.70;99.90;;;;;;5064089;28;20979;-71
2023/01/11 02:19:50;;;;;;;3.37;1.03;;;6.80;99.90;;;;;;5063302;28;20428;-69
2023/01/11 02:22:33;;;;;;;1.57;1.10;;;6.80;99.90;;;;;;5054573;28;20677;-70
2023/01/11 02:24:59;;;;;;;1.70;0.80;;;6.90;99.90;;;;;;5055392;28;20602;-71
2023/01/11 02:27:47;;;;;;;0.60;0.60;;;6.90;99.90;;;;;;5059211;28;20474;-70
2023/01/11 02:30:25;;;;;;;0.70;0.70;;;6.90;99.90;;;;;;5054798;28;20565;-75
2023/01/11 02:33:27;;;;;;;1.10;0.87;;;6.90;99.90;;;;;;5062957;28;20840;-70
2023/01/11 02:36:26;;;;;;;2.00;1.03;;;7.00;99.90;;;;;;5058290;28;20431;-69
2023/01/11 02:39:05;;;;;;;1.00;0.70;;;7.00;99.90;;;;;;5062983;28;20439;-70
2023/01/11 02:47:36;;;;;;;2.53;0.87;;;7.00;99.90;;;;;;5053753;28;20523;-71
2023/01/11 02:50:20;;;;;;;0.60;0.57;;;7.00;99.90;;;;;;5053109;28;20511;-70
2023/01/11 02:53:10;;;;;;;0.60;0.60;;;7.00;99.90;;;;;;5053639;28;20932;-71
2023/01/11 02:55:42;;;;;;;0.60;0.50;;;7.00;99.90;;;;;;5053821;28;20412;-70
2023/01/11 02:58:11;;;;;;;1.03;0.80;;;7.10;99.90;;;;;;5053465;28;20419;-70
2023/01/11 03:00:38;;;;;;;0.60;0.60;;;7.10;99.90;;;;;;5053401;28;20420;-70
2023/01/11 03:03:05;;;;;;;1.13;1.00;;;7.10;99.90;;;;;;5053410;28;20444;-69
2023/01/11 03:05:31;;;;;;;0.80;0.80;;;7.10;99.90;;;;;;5053291;28;20464;-70
2023/01/11 03:08:04;;;;;;;1.87;0.80;;;7.20;99.90;;;;;;5060130;28;20447;-69
2023/01/11 03:10:51;;;;;;;2.10;0.67;;;7.20;99.90;;;;;;5059212;28;20428;-69
2023/01/11 03:13:41;;;;;;;0.70;0.70;;;7.30;99.90;;;;;;5055605;28;20828;-71
2023/01/11 03:16:21;;;;;;;1.63;0.77;;;7.30;99.90;;;;;;5058183;28;20470;-69
2023/01/11 03:18:53;;;;;;;3.17;0.77;;;7.30;99.90;;;;;;5062082;28;20447;-70
2023/01/11 03:21:50;;;;;;;1.60;0.97;;;7.30;99.90;;;;;;5061213;28;20807;-70
2023/01/11 03:24:37;;;;;;;4.23;0.77;;;7.30;99.90;;;;;;5060228;28;20805;-69
2023/01/11 03:27:13;;;;;;;0.87;0.60;;;7.30;99.90;;;;;;5051008;28;20439;-70
2023/01/11 03:29:53;;;;;;;1.33;0.70;;;7.30;99.90;;;;;;5058614;28;20427;-69
2023/01/11 03:32:49;;;;;;;1.27;0.50;;;7.40;99.90;;;;;;5057350;28;20936;-70
2023/01/11 03:35:43;;;;;;;1.80;0.60;;;7.40;99.90;;;;;;5055412;28;20427;-70
2023/01/11 03:38:28;;;;;;;0.70;0.70;;;7.40;99.90;;;;;;5056000;28;20435;-76
2023/01/11 03:41:04;;;;;;;4.13;0.53;;;7.40;99.90;;;;;;5062589;28;20849;-70
2023/01/11 03:43:32;;;;;;;0.60;0.60;;;7.40;99.90;;;;;;5066106;28;20446;-71
2023/01/11 03:46:00;;;;;;;0.90;0.60;;;7.40;99.90;;;;;;5060401;28;20464;-70
2023/01/11 03:48:36;;;;;;;0.77;0.60;;;7.40;99.90;;;;;;5055837;28;20976;-69
2023/01/11 03:51:03;;;;;;;1.03;0.60;;;7.40;99.90;;;;;;5052911;28;20492;-70
2023/01/11 03:53:33;;;;;;;1.30;0.60;;;7.40;99.90;;;;;;5053394;28;20456;-69
2023/01/11 03:56:01;;;;;;;0.90;0.83;;;7.30;99.90;;;;;;5051911;28;20522;-70
2023/01/11 03:58:28;;;;;;;1.37;0.60;;;7.40;99.90;;;;;;5040620;28;20446;-70
2023/01/11 04:00:57;;;;;;;0.90;0.60;;;7.40;99.90;;;;;;5062884;28;20525;-71
2023/01/11 04:03:22;;;;;;;1.57;0.80;;;7.40;99.90;;;;;;5057086;28;20459;-70
2023/01/11 04:05:52;;;;;;;1.17;0.83;;;7.40;99.90;;;;;;5064326;28;20570;-71
2023/01/11 04:08:18;;;;;;;2.13;0.80;;;7.50;99.90;;;;;;5059720;28;20169;-75
2023/01/11 04:10:44;;;;;;;0.70;0.50;;;7.50;99.90;;;;;;5050061;28;20513;-69
2023/01/11 04:13:09;;;;;;;0.70;0.70;;;7.50;99.90;;;;;;5053674;28;20212;-69
2023/01/11 04:15:35;;;;;;;0.50;0.50;;;7.50;99.90;;;;;;5065426;28;20181;-70
2023/01/11 04:18:04;;;;;;;0.93;0.70;;;7.50;99.90;;;;;;5055258;28;20252;-69
2023/01/11 04:20:35;;;;;;;1.33;0.53;;;7.40;99.90;;;;;;5060405;28;20182;-69
2023/01/11 04:23:03;;;;;;;0.70;0.50;;;7.40;99.90;;;;;;5045619;28;20464;-72
2023/01/11 04:25:28;;;;;;;1.43;0.70;;;7.40;99.90;;;;;;5065936;28;20948;-70
2023/01/11 04:27:54;;;;;;;1.80;0.50;;;7.30;99.90;;;;;;5060204;28;20517;-71
2023/01/11 04:30:20;;;;;;;0.57;0.57;;;7.40;99.90;;;;;;5056622;28;20234;-70
2023/01/11 04:32:46;;;;;;;2.23;0.60;;;7.30;99.90;;;;;;5057906;28;20193;-71
2023/01/11 04:35:11;;;;;;;1.37;0.50;;;7.40;99.90;;;;;;5058388;28;20449;-70
2023/01/11 04:37:37;;;;;;;0.93;0.57;;;7.40;99.90;;;;;;5043998;28;20231;-70
2023/01/11 04:40:03;;;;;;;1.80;0.80;;;7.40;99.90;;;;;;5058220;28;20178;-71
2023/01/11 04:42:28;;;;;;;4.40;0.70;;;7.40;99.90;;;;;;5057755;28;20197;-72
2023/01/11 04:44:54;;;;;;;0.60;0.50;;;7.50;99.90;;;;;;5054204;28;21283;-69
2023/01/11 04:47:21;;;;;;;1.60;0.60;;;7.50;99.90;;;;;;5058110;28;20187;-71
2023/01/11 04:49:47;;;;;;;1.00;0.70;;;7.50;99.90;;;;;;5059457;28;20181;-69
2023/01/11 04:52:15;;;;;;;1.07;0.60;;;7.50;99.90;;;;;;5058042;28;20997;-72
2023/01/11 04:54:41;;;;;;;1.03;0.70;;;7.60;99.90;;;;;;5057964;28;20201;-70
2023/01/11 04:57:08;;;;;;;4.23;0.50;;;7.60;99.90;;;;;;5064461;28;20474;-70
2023/01/11 04:59:34;;;;;;;1.60;0.60;;;7.70;99.90;;;;;;5054146;28;20955;-70
2023/01/11 05:01:59;;;;;;;1.73;0.87;;;7.70;99.90;;;;;;5058239;28;20465;-70
2023/01/11 05:04:25;;;;;;;0.80;0.80;;;7.70;99.90;;;;;;5057486;28;20279;-71
2023/01/11 05:06:51;;;;;;;0.83;0.63;;;7.70;99.90;;;;;;5059180;28;20249;-70
2023/01/11 05:09:17;;;;;;;0.57;0.57;;;7.70;99.90;;;;;;5057150;28;20242;-70
2023/01/11 05:11:44;;;;;;;0.67;0.67;;;7.70;99.90;;;;;;5064681;28;20442;-70
2023/01/11 05:14:10;;;;;;;2.10;0.60;;;7.70;99.90;;;;;;5047903;28;20448;-73
2023/01/11 05:16:36;;;;;;;0.60;0.50;;;7.70;99.90;;;;;;5058405;28;20674;-73
2023/01/11 05:19:03;;;;;;;3.50;0.60;;;7.70;99.90;;;;;;5055840;28;20521;-74
2023/01/11 05:21:31;;;;;;;1.40;0.60;;;7.70;99.90;;;;;;5057306;28;20188;-73
2023/01/11 05:23:58;;;;;;;1.90;0.90;;;7.60;99.90;;;;;;5063040;28;20459;-72
2023/01/11 05:26:27;;;;;;;0.90;0.70;;;7.50;99.90;;;;;;5061438;28;20470;-73
2023/01/11 05:28:54;;;;;;;1.10;0.77;;;7.50;99.90;;;;;;5056314;28;20450;-71
2023/01/11 05:31:20;;;;;;;0.83;0.60;;;7.50;99.90;;;;;;5051370;28;20456;-73
2023/01/11 05:33:46;;;;;;;1.10;0.70;;;7.60;99.90;;;;;;5055430;28;20448;-73
2023/01/11 05:36:17;;;;;;;1.37;0.73;;;7.50;99.90;;;;;;5056312;28;20954;-73
2023/01/11 05:38:45;;;;;;;1.40;0.50;;;7.50;99.90;;;;;;5062830;28;20176;-73
2023/01/11 05:41:10;;;;;;;1.53;0.70;;;7.50;99.90;;;;;;5054216;28;20492;-71
2023/01/11 05:46:21;;;;;;;0.67;0.67;;;7.50;99.90;;;;;;5051446;28;20207;-73
2023/01/11 05:48:47;;;;;;;0.87;0.70;;;7.50;99.90;;;;;;5059050;28;20445;-73
2023/01/11 05:51:13;;;;;;;1.90;1.40;;;7.50;99.90;;;;;;5054998;28;20431;-73
2023/01/11 05:53:39;;;;;;;1.00;0.70;;;7.50;99.90;;;;;;5056969;28;20517;-71
2023/01/11 05:56:04;;;;;;;0.70;0.60;;;7.50;99.90;;;;;;5040257;28;20182;-73
2023/01/11 05:58:30;;;;;;;0.60;0.60;;;7.50;99.90;;;;;;5035313;28;20192;-73
2023/01/11 06:00:55;;;;;;;1.43;0.70;;;7.50;99.90;;;;;;5065257;28;20435;-72
2023/01/11 06:03:23;;;;;;;0.73;0.67;;;7.60;99.90;;;;;;5065215;28;20208;-74
2023/01/11 06:05:49;;;;;;;0.97;0.87;;;7.60;99.90;;;;;;5054351;28;20201;-73
2023/01/11 06:08:15;;;;;;;1.17;0.53;;;7.60;99.90;;;;;;5060901;28;20441;-74
2023/01/11 06:10:40;;;;;;;1.33;0.50;;;7.70;99.90;;;;;;5061835;28;20486;-72
2023/01/11 06:15:53;;;;;;;1.63;1.03;;;7.70;99.90;;;;;;5053406;28;20212;-74
2023/01/11 06:18:20;;;;;;;1.63;0.80;;;7.70;99.90;;;;;;5053677;28;20479;-73
2023/01/11 06:20:50;;;;;;;0.70;0.70;;;7.70;99.90;;;;;;5062397;28;20469;-72
2023/01/11 06:23:16;;;;;;;0.83;0.80;;;7.80;99.90;;;;;;5064015;28;20494;-73
2023/01/11 06:25:42;;;;;;;1.10;0.70;;;7.80;99.90;;;;;;5061825;28;20827;-72
2023/01/11 06:28:07;;;;;;;3.23;0.80;;;7.80;99.90;;;;;;5058854;28;20443;-74
2023/01/11 06:30:33;;;;;;;0.77;0.73;;;7.80;99.90;;;;;;5060132;28;20217;-74
2023/01/11 06:33:04;;;;;;;0.90;0.70;;;7.80;99.90;;;;;;5061860;28;20234;-72
2023/01/11 06:35:31;;;;;;;0.80;0.60;;;7.90;99.90;;;;;;5052352;28;20658;-74
2023/01/11 06:37:56;;;;;;;0.60;0.60;;;7.80;99.90;;;;;;5061560;28;20440;-72
2023/01/11 06:40:22;;;;;;;1.97;0.97;;;7.80;99.90;;;;;;5058599;28;20443;-74
2023/01/11 06:42:47;;;;;;;0.90;0.70;;;7.80;99.90;;;;;;5061175;28;20212;-73
2023/01/11 06:45:13;;;;;;;1.10;0.70;;;7.80;99.90;;;;;;5056751;28;20208;-74
2023/01/11 06:47:38;;;;;;;0.83;0.60;;;7.80;99.90;;;;;;5053843;28;20654;-74
2023/01/11 06:50:05;;;;;;;0.80;0.70;;;7.80;99.90;;;;;;5062107;28;20187;-73
2023/01/11 06:52:30;;;;;;;0.90;0.70;;;7.90;99.90;;;;;;5058511;28;20252;-74
2023/01/11 06:54:56;;;;;;;1.00;0.77;;;8.00;99.90;;;;;;5058969;28;20435;-74
2023/01/11 06:57:21;;;;;;;2.20;0.80;;;7.90;99.90;;;;;;5058192;28;20188;-74
2023/01/11 06:59:47;;;;;;;1.30;1.10;;;8.00;99.90;;;;;;5061326;28;20523;-74
2023/01/11 07:02:13;;;;;;;0.87;0.73;;;7.90;99.90;;;;;;5058009;28;20279;-73
2023/01/11 07:04:38;;;;;;;1.00;0.90;;;8.00;99.90;;;;;;5062075;28;20517;-73
2023/01/11 07:07:04;;;;;;;1.83;0.80;;;8.00;99.90;;;;;;5057724;28;20269;-74
2023/01/11 07:09:29;;;;;;;0.80;0.70;;;8.00;99.90;;;;;;5059425;28;20272;-74
2023/01/11 07:11:55;;;;;;;3.73;0.87;;;8.10;99.90;;;;;;5026211;28;1008615;-74
2023/01/11 07:14:21;;;;;;;1.67;1.57;;;8.10;99.90;;;;;;5063453;28;20181;-74
2023/01/11 07:16:46;;;;;;;2.13;0.80;;;8.10;99.90;;;;;;5060073;28;20204;-73
2023/01/11 07:19:12;;;;;;;2.30;1.70;;;8.00;99.90;;;;;;5058300;28;20197;-73
2023/01/11 07:21:38;;;;;;;1.93;1.23;;;8.00;99.90;;;;;;5056515;28;20185;-74
2023/01/11 07:24:04;;;;;;;1.73;1.30;;;8.00;99.90;;;;;;5064346;28;20191;-74
2023/01/11 07:26:30;;;;;;;1.80;1.23;;;8.00;99.90;;;;;;5056509;28;20731;-73
2023/01/11 07:28:55;;;;;;;1.93;1.17;;;8.00;99.90;;;;;;5059835;28;20435;-74
2023/01/11 07:31:21;;;;;;;1.10;1.00;;;8.00;99.90;;;;;;5059625;28;20462;-74
2023/01/11 07:33:46;;;;;;;1.03;0.90;;;8.00;99.90;;;;;;5060694;28;20322;-74
2023/01/11 07:36:12;;;;;;;1.90;0.80;;;8.10;99.90;;;;;;5054499;28;20192;-74
2023/01/11 07:38:37;;;;;;;1.20;0.83;;;8.20;99.90;;;;;;5062276;28;20263;-74
2023/01/11 07:43:10;;;;;;;1.53;0.80;;;8.20;99.90;;;;;;5059997;28;20231;-74
2023/01/11 07:43:48;;;;;;;1.13;0.80;;;8.30;99.90;;;;;;5057513;28;20234;-74
2023/01/11 07:46:14;;;;;;;3.77;1.30;;;8.40;99.90;;;;;;5059910;28;20514;-74
2023/01/11 07:48:39;;;;;;;1.30;0.87;;;8.40;99.90;;;;;;5056917;28;20667;-74
2023/01/11 07:51:05;;;;;;;1.23;1.07;;;8.50;99.90;;;;;;5069090;28;20177;-74
2023/01/11 07:53:31;;;;;;;1.33;0.90;;;8.50;99.90;;;;;;5060320;28;20689;-74
2023/01/11 07:55:56;;;;;;;2.30;1.03;;;8.60;99.90;;;;;;5042470;28;20176;-74
2023/01/11 07:58:22;;;;;;;2.20;1.00;;;8.60;99.90;;;;;;5064044;28;20230;-74
2023/01/11 08:00:47;;;;;;;1.00;0.67;;;8.70;99.90;;;;;;5061638;28;20180;-74
2023/01/11 08:03:13;;;;;;;1.07;0.80;;;8.70;99.90;;;;;;5058248;28;20582;-74
2023/01/11 08:05:39;;;;;;;1.90;1.13;;;8.70;99.90;;;;;;5056868;28;20716;-74
2023/01/11 08:08:06;;;;;;;2.40;1.30;;;8.80;99.90;;;;;;5058401;28;20271;-73
2023/01/11 08:10:32;;;;;;;2.27;1.13;;;8.80;99.90;;;;;;5055795;28;20193;-74
2023/01/11 08:15:42;;;;;;;1.70;1.50;;;9.00;99.90;;;;;;5054931;28;20461;-72
2023/01/11 08:18:08;;;;;;;1.63;1.33;;;9.00;99.90;;;;;;5057637;28;20519;-74
2023/01/11 08:20:33;;;;;;;2.80;1.30;;;9.00;99.90;;;;;;5056322;28;20276;-71
2023/01/11 08:23:07;;;;;;;1.50;1.20;;;9.00;99.90;;;;;;5054509;28;20457;-75
2023/01/11 08:25:32;;;;;;;1.97;1.00;;;9.00;99.90;;;;;;5062335;28;20200;-74
2023/01/11 08:28:00;;;;;;;1.10;1.00;;;9.10;99.90;;;;;;5058605;28;20431;-72
2023/01/11 08:30:26;;;;;;;2.20;1.40;;;9.10;99.90;;;;;;5058665;28;20550;-75
2023/01/11 08:32:51;;;;;;;8.03;1.07;;;9.10;99.90;;;;;;5061164;28;20456;-74
2023/01/11 08:35:17;;;;;;;2.30;2.10;;;9.10;99.90;;;;;;5057650;28;20192;-74
2023/01/11 08:37:42;;;;;;;1.27;0.97;;;9.20;99.90;;;;;;5051769;28;20189;-74
2023/01/11 08:40:08;;;;;;;2.00;0.80;;;9.20;99.90;;;;;;5063836;28;20193;-75
2023/01/11 08:42:34;;;;;;;1.00;0.70;;;9.20;99.90;;;;;;5059349;28;20205;-73
2023/01/11 08:44:59;;;;;;;2.03;1.03;;;9.30;99.90;;;;;;5055809;28;20449;-72
2023/01/11 08:47:25;;;;;;;0.80;0.80;;;9.30;99.90;;;;;;5059282;28;20177;-74
2023/01/11 08:49:51;;;;;;;2.30;0.90;;;9.30;99.90;;;;;;5060774;28;20248;-74
2023/01/11 08:52:16;;;;;;;2.00;1.30;;;9.30;99.90;;;;;;5057154;28;20448;-73
2023/01/11 08:54:42;;;;;;;1.00;0.90;;;9.30;99.90;;;;;;5059470;28;20177;-73
2023/01/11 08:57:08;;;;;;;0.80;0.80;;;9.40;99.90;;;;;;5056623;28;20192;-74
2023/01/11 08:59:34;;;;;;;1.17;1.07;;;9.40;99.90;;;;;;5058726;28;20177;-74
2023/01/11 09:02:01;;;;;;;0.50;0.50;;;9.50;99.90;;;;;;5057464;28;20515;-73
2023/01/11 09:04:27;;;;;;;0.90;0.70;;;9.60;99.90;;;;;;5061799;28;20177;-74
2023/01/11 09:06:53;;;;;;;2.03;0.80;;;9.60;99.90;;;;;;5059135;28;20463;-74
2023/01/11 09:09:18;;;;;;;1.13;0.90;;;9.60;99.90;;;;;;5056841;28;20177;-74
2023/01/11 09:11:53;;;;;;;1.17;0.90;;;9.70;99.90;;;;;;5059661;28;20180;-72
2023/01/11 09:14:23;;;;;;;1.20;1.10;;;9.70;99.90;;;;;;5060852;28;20187;-73
2023/01/11 09:16:49;;;;;;;1.40;0.60;;;9.80;99.90;;;;;;5058416;28;20435;-72
2023/01/11 09:19:15;;;;;;;1.20;1.10;;;9.80;99.90;;;;;;5038051;28;20428;-73
2023/01/11 09:21:40;;;;;;;1.60;0.80;;;9.80;99.90;;;;;;5059986;28;20459;-74
2023/01/11 09:24:06;;;;;;;1.57;1.20;;;9.80;99.90;;;;;;5060728;28;20208;-71
2023/01/11 09:26:32;;;;;;;1.10;0.97;;;9.80;99.90;;;;;;5061158;28;20254;-73
2023/01/11 09:28:57;;;;;;;1.60;0.90;;;9.80;99.90;;;;;;5059352;28;20169;-72
2023/01/11 09:31:23;;;;;;;0.80;0.80;;;9.90;99.90;;;;;;5062528;28;21173;-73
2023/01/11 09:33:48;;;;;;;1.00;0.80;;;9.90;99.90;;;;;;5063334;28;20194;-74
2023/01/11 09:36:17;;;;;;;1.10;1.00;;;9.90;99.90;;;;;;5058973;28;20217;-73
2023/01/11 09:38:43;;;;;;;1.20;0.80;;;9.90;99.90;;;;;;5059735;28;20178;-73
2023/01/11 09:41:22;;;;;;;1.53;0.67;;;10.00;99.90;;;;;;5071108;28;20425;-72
2023/01/11 09:44:14;;;;;;;4.30;1.63;;;10.00;99.90;;;;;;5069807;28;20201;-74
2023/01/11 09:46:46;;;;;;;1.83;1.10;;;10.00;99.90;;;;;;5055063;28;20471;-73
2023/01/11 09:49:18;;;;;;;0.80;0.80;;;10.10;99.90;;;;;;5054325;28;20432;-74
2023/01/11 09:51:45;;;;;;;1.10;1.00;;;10.10;99.90;;;;;;5054704;28;20460;-74
2023/01/11 09:54:23;;;;;;;1.03;0.90;;;10.10;99.90;;;;;;5054900;28;20424;-74
2023/01/11 09:57:09;;;;;;;1.33;0.97;;;10.10;99.90;;;;;;5054855;28;20423;-74
2023/01/11 09:59:47;;;;;;;1.03;0.87;;;10.20;99.90;;;;;;5036189;28;20423;-73
2023/01/11 10:02:47;;;;;;;3.70;0.60;;;10.10;99.90;;;;;;5054717;28;20534;-73
2023/01/11 10:05:22;;;;;;;1.20;1.10;;;10.10;99.90;;;;;;5054787;28;20541;-74
2023/01/11 10:08:02;;;;;;;1.83;0.70;;;10.10;99.90;;;;;;5054611;28;20427;-74
2023/01/11 10:10:42;;;;;;;1.40;1.10;;;10.10;99.90;;;;;;5052891;28;20471;-74
2023/01/11 10:13:44;;;;;;;1.03;1.00;;;10.10;99.90;;;;;;5061330;28;20475;-73
2023/01/11 10:16:50;;;;;;;1.63;1.27;;;10.10;99.90;;;;;;5052013;28;20576;-74
2023/01/11 10:19:46;;;;;;;1.23;1.10;;;10.10;99.90;;;;;;4997635;28;20450;-74
2023/01/11 10:22:39;;;;;;;1.10;1.00;;;10.20;99.90;;;;;;5053494;28;20554;-74
2023/01/11 10:25:17;;;;;;;1.20;1.00;;;10.20;99.90;;;;;;5053730;28;20754;-74
2023/01/11 10:27:57;;;;;;;1.70;1.20;;;10.20;99.90;;;;;;5062454;28;20959;-74
2023/01/11 10:33:24;;;;;;;5.30;1.27;;;10.20;99.90;;;;;;5061516;28;20459;-74
2023/01/11 10:39:20;;;;;;;2.33;1.03;;;10.20;99.90;;;;;;5055630;28;20438;-73
2023/01/11 10:41:56;;;;;;;1.93;1.10;;;10.30;99.90;;;;;;5061648;28;20535;-72
2023/01/11 10:44:33;;;;;;;2.10;1.27;;;10.30;99.90;;;;;;5065002;28;20796;-74
2023/01/11 10:47:01;;;;;;;1.93;1.30;;;10.30;99.90;;;;;;5063489;28;20463;-73
2023/01/11 10:49:42;;;;;;;2.83;1.43;;;10.30;99.90;;;;;;5053850;28;20432;-73
2023/01/11 10:52:40;;;;;;;1.50;1.30;;;10.30;99.90;;;;;;5031946;28;20450;-74
2023/01/11 10:55:30;;;;;;;2.83;1.60;;;10.30;99.90;;;;;;5059953;28;20937;-74
2023/01/11 10:58:20;;;;;;;4.17;1.40;;;10.30;99.90;;;;;;5056710;28;20959;-73
2023/01/11 11:00:53;;;;;;;2.40;1.30;;;10.30;99.90;;;;;;5042950;28;20491;-73
2023/01/11 11:03:37;;;;;;;1.40;1.30;;;10.30;99.90;;;;;;5055904;28;20459;-73
2023/01/11 11:06:28;;;;;;;1.93;1.57;;;10.30;99.90;;;;;;5032804;28;20462;-74
2023/01/11 11:09:17;;;;;;;1.70;1.30;;;10.30;99.90;;;;;;5059740;28;20431;-72
2023/01/11 11:12:12;;;;;;;4.30;1.50;;;10.30;99.90;;;;;;5063027;28;20438;-74
2023/01/11 11:15:10;;;;;;;1.20;1.10;;;10.20;99.90;;;;;;5063215;28;20953;-74
2023/01/11 11:17:38;;;;;;;1.57;1.10;;;10.20;99.90;;;;;;5027929;28;20498;-73
2023/01/11 11:20:14;;;;;;;2.20;1.07;;;10.10;99.90;;;;;;5060451;28;20518;-74
2023/01/11 11:22:40;;;;;;;1.70;0.80;;;10.00;99.90;;;;;;5061015;28;20446;-73
2023/01/11 11:25:26;;;;;;;1.50;1.00;;;9.90;99.90;;;;;;5058942;28;20984;-74
2023/01/11 11:27:59;;;;;;;1.00;0.90;;;9.90;99.90;;;;;;5055542;28;20493;-72
2023/01/11 11:30:30;;;;;;;2.50;1.23;;;9.90;99.90;;;;;;5054988;28;20443;-74
2023/01/11 11:33:07;;;;;;;0.80;0.80;;;9.90;99.90;;;;;;5056296;28;20455;-74
2023/01/11 11:35:44;;;;;;;0.93;0.93;;;10.00;99.90;;;;;;5057084;28;20979;-74
2023/01/11 11:38:21;;;;;;;1.27;0.93;;;10.20;99.90;;;;;;5059180;28;20937;-73
2023/01/11 11:40:56;;;;;;;2.30;1.40;;;10.20;99.90;;;;;;5060021;28;20815;-73
2023/01/11 11:43:23;;;;;;;1.10;0.83;;;10.30;99.90;;;;;;5057554;28;20463;-74
2023/01/11 11:45:59;;;;;;;4.57;1.83;;;10.30;99.90;;;;;;5063068;28;20495;-74
2023/01/11 11:48:28;;;;;;;3.27;1.83;;;10.40;99.90;;;;;;5063096;28;20545;-74
2023/01/11 11:50:56;;;;;;;4.97;1.07;;;10.40;99.90;;;;;;5053437;28;20490;-74
2023/01/11 11:53:28;;;;;;;1.30;1.03;;;10.40;99.90;;;;;;5056236;28;20459;-74
2023/01/11 11:55:54;;;;;;;2.50;1.47;;;10.30;99.90;;;;;;5056710;28;20469;-72
2023/01/11 11:58:23;;;;;;;1.20;1.00;;;10.30;99.90;;;;;;5054262;28;20961;-74
2023/01/11 12:00:51;;;;;;;1.23;1.10;;;10.30;99.90;;;;;;5055806;28;20813;-74
2023/01/11 12:03:21;;;;;;;4.57;3.13;;;10.20;99.90;;;;;;5057605;28;20521;-72
2023/01/11 12:05:53;;;;;;;1.00;0.80;;;10.20;99.90;;;;;;5059628;28;20811;-72
2023/01/11 12:08:20;;;;;;;1.03;1.00;;;10.20;99.90;;;;;;5062781;28;20507;-74
2023/01/11 12:10:57;;;;;;;1.03;0.80;;;10.20;99.90;;;;;;5060808;28;20442;-74
2023/01/11 12:14:01;;;;;;;0.90;0.90;;;10.20;99.90;;;;;;5052865;28;20864;-74
2023/01/11 12:16:32;;;;;;;1.90;1.80;;;10.20;99.90;;;;;;5055762;28;20533;-74
2023/01/11 12:18:58;;;;;;;1.23;1.10;;;10.20;99.90;;;;;;5058310;28;20463;-74
2023/01/11 12:21:25;;;;;;;1.30;1.00;;;10.20;99.90;;;;;;5058109;28;20872;-73
2023/01/11 12:24:22;;;;;;;0.77;0.67;;;10.20;99.90;;;;;;5061898;28;20202;-75
2023/01/11 12:27:36;;;;;;;1.80;0.90;;;10.20;99.90;;;;;;5059053;28;21066;-74
2023/01/11 12:30:07;;;;;;;1.27;1.17;;;10.30;99.90;;;;;;5047100;28;20438;-74
2023/01/11 12:32:59;;;;;;;2.30;1.30;;;10.30;99.90;;;;;;5061744;28;20451;-74
2023/01/11 12:35:47;;;;;;;2.63;1.80;;;10.30;99.90;;;;;;5053824;28;20447;-74
2023/01/11 12:38:36;;;;;;;1.00;1.00;;;10.40;99.90;;;;;;5053534;28;20453;-69
2023/01/11 12:41:07;;;;;;;1.07;1.03;;;10.40;99.90;;;;;;5049464;28;20948;-74
2023/01/11 12:43:42;;;;;;;1.10;1.00;;;10.30;99.90;;;;;;5056718;28;20487;-74
2023/01/11 12:46:24;;;;;;;1.70;1.37;;;10.20;99.90;;;;;;5053344;28;20976;-74
2023/01/11 12:49:15;;;;;;;1.53;1.43;;;10.20;99.90;;;;;;5054346;28;20440;-74
2023/01/11 12:52:24;;;;;;;2.80;1.50;;;10.20;99.90;;;;;;5051600;28;21059;-73
2023/01/11 12:55:04;;;;;;;1.80;1.60;;;10.10;99.90;;;;;;5055390;28;20435;-73
2023/01/11 12:57:59;;;;;;;1.90;1.70;;;10.10;99.90;;;;;;5058401;28;20450;-72
2023/01/11 13:00:35;;;;;;;1.70;1.43;;;10.00;99.90;;;;;;5050134;28;21038;-73
2023/01/11 13:03:23;;;;;;;2.47;1.80;;;10.00;99.90;;;;;;5048197;28;20468;-72
2023/01/11 13:06:10;;;;;;;2.00;1.67;;;10.00;99.90;;;;;;5060908;28;22342;-72
2023/01/11 13:08:55;;;;;;;1.93;1.70;;;9.90;99.90;;;;;;5061074;28;20435;-73
2023/01/11 13:11:54;;;;;;;1.70;1.30;;;9.90;99.90;;;;;;5064210;28;20426;-73
2023/01/11 13:14:49;;;;;;;4.37;1.80;;;9.90;99.90;;;;;;5066426;28;20495;-73
2023/01/11 13:17:35;;;;;;;1.63;1.23;;;10.00;99.90;;;;;;5055623;28;20445;-71
2023/01/11 13:20:26;;;;;;;2.70;2.10;;;10.00;99.90;;;;;;5056850;28;20495;-73
2023/01/11 13:23:09;;;;;;;2.13;2.00;;;10.10;99.90;;;;;;5067555;28;20460;-72
2023/01/11 13:25:40;;;;;;;2.30;2.10;;;10.20;99.90;;;;;;5063869;28;20462;-73
2023/01/11 13:28:36;;;;;;;2.07;1.40;;;10.20;99.90;;;;;;5065858;28;20813;-72
2023/01/11 13:31:06;;;;;;;1.70;1.43;;;10.20;99.90;;;;;;5060266;28;20494;-71
2023/01/11 13:33:32;;;;;;;2.00;1.60;;;10.20;99.90;;;;;;5054380;28;20455;-73
2023/01/11 13:36:04;;;;;;;1.47;1.27;;;10.20;99.90;;;;;;5063536;28;20830;-72
2023/01/11 13:38:39;;;;;;;2.73;1.60;;;10.20;99.90;;;;;;5065564;28;20439;-72
2023/01/11 13:41:38;;;;;;;2.97;2.07;;;10.10;99.90;;;;;;5058509;28;20450;-72
2023/01/11 13:44:22;;;;;;;2.60;1.57;;;10.10;99.90;;;;;;5059702;28;20461;-73
2023/01/11 13:47:07;;;;;;;1.43;1.33;;;10.20;99.90;;;;;;5063561;28;20469;-72
2023/01/11 13:49:48;;;;;;;2.00;1.70;;;10.10;99.90;;;;;;5056337;28;20431;-72